createdAt,value
2023-04-20T00:01:57.151Z,4.46
2023-04-20T00:04:25.657Z,4.46
2023-04-20T00:06:54.318Z,4.47
2023-04-20T00:09:22.884Z,4.47
2023-04-20T00:11:51.205Z,4.50
2023-04-20T00:14:19.753Z,4.49
2023-04-20T00:16:48.708Z,4.41
2023-04-20T00:19:18.002Z,4.41
2023-04-20T00:21:46.564Z,4.45
2023-04-20T00:24:14.776Z,4.49
2023-04-20T00:26:43.031Z,4.55
2023-04-20T00:29:11.810Z,4.59
2023-04-20T00:31:40.179Z,4.63
2023-04-20T00:34:08.490Z,4.64
2023-04-20T00:36:37.026Z,4.66
2023-04-20T00:39:06.029Z,4.66
2023-04-20T00:41:34.209Z,4.67
2023-04-20T00:44:03.139Z,4.66
2023-04-20T00:46:31.438Z,4.65
2023-04-20T00:49:00.350Z,4.65
2023-04-20T00:51:29.645Z,4.65
2023-04-20T00:53:59.817Z,4.67
2023-04-20T00:56:28.105Z,4.71
2023-04-20T00:58:56.533Z,4.75
2023-04-20T01:01:24.880Z,4.77
2023-04-20T01:03:53.904Z,4.76
2023-04-20T01:06:22.776Z,4.78
2023-04-20T01:08:51.791Z,4.79
2023-04-20T01:11:20.343Z,4.78
2023-04-20T01:13:49.368Z,4.72
2023-04-20T01:16:17.784Z,4.70
2023-04-20T01:18:49.937Z,4.69
2023-04-20T01:21:19.372Z,4.71
2023-04-20T01:23:47.926Z,4.71
2023-04-20T01:26:17.962Z,4.69
2023-04-20T01:28:46.705Z,4.71
2023-04-20T01:31:17.224Z,4.75
2023-04-20T01:33:45.613Z,4.75
2023-04-20T01:36:14.279Z,4.72
2023-04-20T01:38:42.580Z,4.70
2023-04-20T01:41:11.301Z,4.67
2023-04-20T01:43:40.296Z,4.65
2023-04-20T01:46:08.559Z,4.59
2023-04-20T01:48:36.821Z,4.57
2023-04-20T01:51:05.059Z,4.61
2023-04-20T01:53:34.354Z,4.62
2023-04-20T01:56:02.764Z,4.65
2023-04-20T01:58:31.471Z,4.69
2023-04-20T02:01:01.314Z,4.69
2023-04-20T02:03:29.844Z,4.69
2023-04-20T02:05:58.198Z,4.70
2023-04-20T02:08:28.178Z,4.71
2023-04-20T02:10:56.421Z,4.71
2023-04-20T02:13:24.941Z,4.69
2023-04-20T02:15:53.193Z,4.66
2023-04-20T02:18:24.655Z,4.65
2023-04-20T02:20:53.108Z,4.67
2023-04-20T02:23:21.575Z,4.69
2023-04-20T02:25:49.755Z,4.75
2023-04-20T02:28:18.087Z,4.80
2023-04-20T02:30:46.354Z,4.84
2023-04-20T02:33:14.730Z,4.85
2023-04-20T02:35:42.993Z,4.86
2023-04-20T02:38:12.448Z,4.86
2023-04-20T02:40:40.656Z,4.85
2023-04-20T02:43:09.302Z,4.83
2023-04-20T02:45:38.636Z,4.78
2023-04-20T02:48:07.534Z,4.74
2023-04-20T02:50:38.181Z,4.68
2023-04-20T02:53:18.699Z,4.62
2023-04-20T02:55:50.719Z,4.59
2023-04-20T02:58:26.330Z,4.54
2023-04-20T03:01:21.059Z,4.48
2023-04-20T03:03:50.862Z,4.44
2023-04-20T03:06:19.303Z,4.43
2023-04-20T03:08:52.153Z,4.45
2023-04-20T03:11:39.096Z,4.49
2023-04-20T03:14:07.408Z,4.51
2023-04-20T03:16:35.752Z,4.54
2023-04-20T03:19:05.720Z,4.56
2023-04-20T03:21:34.023Z,4.54
2023-04-20T03:24:02.490Z,4.50
2023-04-20T03:26:30.876Z,4.51
2023-04-20T03:29:18.182Z,4.48
2023-04-20T03:31:46.976Z,4.47
2023-04-20T03:34:15.647Z,4.49
2023-04-20T03:36:45.350Z,4.53
2023-04-20T03:39:13.592Z,4.60
2023-04-20T03:41:41.961Z,4.68
2023-04-20T03:44:10.268Z,4.75
2023-04-20T03:46:38.574Z,4.79
2023-04-20T03:49:06.953Z,4.82
2023-04-20T03:51:35.292Z,4.82
2023-04-20T03:54:03.535Z,4.80
2023-04-20T03:56:32.209Z,4.76
2023-04-20T03:59:01.005Z,4.74
2023-04-20T04:01:29.404Z,4.71
2023-04-20T04:03:58.618Z,4.72
2023-04-20T04:06:27.554Z,4.73
2023-04-20T04:08:55.903Z,4.78
2023-04-20T04:11:25.725Z,4.84
2023-04-20T04:13:54.083Z,4.91
2023-04-20T04:16:22.764Z,4.99
2023-04-20T04:18:51.158Z,5.07
2023-04-20T04:21:20.257Z,5.20
2023-04-20T04:23:53.791Z,5.37
2023-04-20T04:26:51.293Z,5.47
2023-04-20T04:29:20.323Z,5.52
2023-04-20T04:31:48.873Z,5.51
2023-04-20T04:34:21.335Z,5.52
2023-04-20T04:36:52.791Z,5.52
2023-04-20T04:39:26.187Z,5.54
2023-04-20T04:42:05.087Z,5.55
2023-04-20T04:44:43.816Z,5.57
2023-04-20T04:47:17.799Z,5.59
2023-04-20T04:49:46.559Z,5.58
2023-04-20T04:52:15.275Z,5.59
2023-04-20T04:54:43.511Z,5.57
2023-04-20T04:57:11.720Z,5.52
2023-04-20T04:59:40.096Z,5.44
2023-04-20T05:02:08.320Z,5.41
2023-04-20T05:04:36.834Z,5.41
2023-04-20T05:07:05.231Z,5.43
2023-04-20T05:09:34.091Z,5.47
2023-04-20T05:12:03.261Z,5.49
2023-04-20T05:14:32.245Z,5.49
2023-04-20T05:17:01.137Z,5.52
2023-04-20T05:19:29.766Z,5.56
2023-04-20T05:21:58.003Z,5.55
2023-04-20T05:24:26.435Z,5.53
2023-04-20T05:26:54.617Z,5.48
2023-04-20T05:29:22.790Z,5.44
2023-04-20T05:31:51.270Z,5.46
2023-04-20T05:34:19.529Z,5.50
2023-04-20T05:36:48.082Z,5.53
2023-04-20T05:39:17.049Z,5.59
2023-04-20T05:41:46.151Z,5.61
2023-04-20T05:44:14.373Z,5.63
2023-04-20T05:46:42.689Z,5.63
2023-04-20T05:49:11.032Z,5.66
2023-04-20T05:51:39.243Z,5.66
2023-04-20T05:54:07.431Z,5.67
2023-04-20T05:56:35.687Z,5.68
2023-04-20T05:59:04.787Z,5.70
2023-04-20T06:01:32.893Z,5.72
2023-04-20T06:04:01.518Z,5.78
2023-04-20T06:06:29.954Z,5.87
2023-04-20T06:08:58.361Z,5.94
2023-04-20T06:11:26.712Z,5.99
2023-04-20T06:13:55.038Z,6.02
2023-04-20T06:16:23.395Z,6.05
2023-04-20T06:18:51.743Z,6.07
2023-04-20T06:21:20.407Z,6.07
2023-04-20T06:23:49.118Z,6.06
2023-04-20T06:26:17.387Z,6.05
2023-04-20T06:28:47.456Z,6.02
2023-04-20T06:31:15.921Z,6.00
2023-04-20T06:33:44.318Z,5.99
2023-04-20T06:36:12.653Z,6.06
2023-04-20T06:38:40.883Z,6.09
2023-04-20T06:41:09.127Z,6.10
2023-04-20T06:43:37.425Z,6.11
2023-04-20T06:46:05.810Z,6.14
2023-04-20T06:48:34.899Z,6.15
2023-04-20T06:51:03.415Z,6.15
2023-04-20T06:53:31.720Z,6.18
2023-04-20T06:56:00.199Z,6.21
2023-04-20T06:58:28.421Z,6.22
2023-04-20T07:00:56.731Z,6.31
2023-04-20T07:03:25.181Z,6.39
2023-04-20T07:05:53.554Z,6.42
2023-04-20T07:08:22.111Z,6.45
2023-04-20T07:10:50.544Z,6.52
2023-04-20T07:13:18.824Z,6.60
2023-04-20T07:15:47.067Z,6.66
2023-04-20T07:18:15.284Z,6.69
2023-04-20T07:20:43.630Z,6.70
2023-04-20T07:23:11.836Z,6.69
2023-04-20T07:25:40.018Z,6.65
2023-04-20T07:28:08.464Z,6.65
2023-04-20T07:30:36.686Z,6.69
2023-04-20T07:33:05.116Z,6.73
2023-04-20T07:35:33.298Z,6.78
2023-04-20T07:38:01.686Z,6.86
2023-04-20T07:40:30.491Z,6.95
2023-04-20T07:42:58.691Z,7.00
2023-04-20T07:45:26.953Z,6.98
2023-04-20T07:47:57.459Z,6.99
2023-04-20T07:50:25.972Z,6.99
2023-04-20T07:52:54.367Z,7.01
2023-04-20T07:55:22.789Z,7.05
2023-04-20T07:57:51.491Z,7.10
2023-04-20T08:00:20.065Z,7.15
2023-04-20T08:02:48.540Z,7.18
2023-04-20T08:05:17.199Z,7.25
2023-04-20T08:07:45.959Z,7.36
2023-04-20T08:10:14.164Z,7.46
2023-04-20T08:12:42.793Z,7.60
2023-04-20T08:15:11.349Z,7.70
2023-04-20T08:17:39.568Z,7.75
2023-04-20T08:20:08.124Z,7.80
2023-04-20T08:22:36.516Z,7.82
2023-04-20T08:25:05.262Z,7.84
2023-04-20T08:27:33.594Z,7.88
2023-04-20T08:30:04.446Z,7.89
2023-04-20T08:32:33.469Z,7.95
2023-04-20T08:35:01.952Z,7.99
2023-04-20T08:37:32.500Z,8.06
2023-04-20T08:40:01.281Z,8.13
2023-04-20T08:42:29.563Z,8.22
2023-04-20T08:44:58.311Z,8.31
2023-04-20T08:47:28.246Z,8.41
2023-04-20T08:49:56.949Z,8.51
2023-04-20T08:52:25.289Z,8.59
2023-04-20T08:54:57.460Z,8.76
2023-04-20T08:57:26.527Z,8.98
2023-04-20T08:59:55.818Z,9.22
2023-04-20T09:02:24.282Z,9.38
2023-04-20T09:05:05.416Z,9.53
2023-04-20T09:07:33.880Z,9.68
2023-04-20T09:10:02.251Z,9.69
2023-04-20T09:12:40.227Z,9.69
2023-04-20T09:15:09.017Z,9.76
2023-04-20T09:17:40.337Z,9.93
2023-04-20T09:20:09.115Z,9.94
2023-04-20T09:22:37.955Z,9.86
2023-04-20T09:25:19.304Z,9.87
2023-04-20T09:28:01.554Z,9.84
2023-04-20T09:30:38.660Z,9.76
2023-04-20T09:33:12.225Z,9.68
2023-04-20T09:35:42.258Z,9.64
2023-04-20T09:38:11.306Z,9.52
2023-04-20T09:40:39.560Z,9.44
2023-04-20T09:43:10.386Z,9.35
2023-04-20T09:45:39.244Z,9.35
2023-04-20T09:48:09.520Z,9.38
2023-04-20T09:50:48.383Z,9.43
2023-04-20T09:53:19.134Z,9.38
2023-04-20T09:55:48.812Z,9.27
2023-04-20T09:58:19.242Z,9.11
2023-04-20T10:00:47.588Z,8.96
2023-04-20T10:03:19.634Z,9.00
2023-04-20T10:05:48.355Z,9.02
2023-04-20T10:08:17.192Z,9.06
2023-04-20T10:10:46.962Z,9.03
2023-04-20T10:13:16.204Z,8.91
2023-04-20T10:15:44.573Z,8.91
2023-04-20T10:18:17.883Z,8.95
2023-04-20T10:20:46.794Z,8.99
2023-04-20T10:23:16.430Z,8.99
2023-04-20T10:25:55.710Z,8.98
2023-04-20T10:28:24.063Z,9.00
2023-04-20T10:30:53.685Z,9.02
2023-04-20T10:33:23.125Z,9.02
2023-04-20T10:35:54.780Z,9.08
2023-04-20T10:38:33.601Z,9.22
2023-04-20T10:41:08.738Z,9.42
2023-04-20T10:43:42.219Z,9.62
2023-04-20T10:46:14.384Z,9.89
2023-04-20T10:49:02.946Z,10.11
2023-04-20T10:51:31.670Z,10.24
2023-04-20T10:54:06.875Z,10.29
2023-04-20T10:56:38.357Z,10.39
2023-04-20T10:59:08.029Z,10.55
2023-04-20T11:01:36.349Z,10.66
2023-04-20T11:04:04.775Z,10.70
2023-04-20T11:06:33.293Z,10.65
2023-04-20T11:09:01.721Z,10.61
2023-04-20T11:11:29.968Z,10.50
2023-04-20T11:14:08.207Z,10.37
2023-04-20T11:16:48.008Z,10.30
2023-04-20T11:19:37.815Z,10.22
2023-04-20T11:22:06.770Z,10.23
2023-04-20T11:24:35.971Z,10.23
2023-04-20T11:27:05.044Z,10.22
2023-04-20T11:29:34.990Z,10.11
2023-04-20T11:32:04.890Z,10.09
2023-04-20T11:34:33.846Z,10.12
2023-04-20T11:37:10.299Z,10.09
2023-04-20T11:39:38.790Z,10.10
2023-04-20T11:42:07.017Z,10.14
2023-04-20T11:44:37.026Z,10.22
2023-04-20T11:47:06.286Z,10.18
2023-04-20T11:49:34.632Z,10.36
2023-04-20T11:52:03.474Z,10.42
2023-04-20T11:54:34.224Z,10.58
2023-04-20T11:57:02.897Z,10.69
2023-04-20T11:59:31.212Z,10.74
2023-04-20T12:02:02.998Z,10.76
2023-04-20T12:04:31.752Z,10.58
2023-04-20T12:07:00.639Z,10.52
2023-04-20T12:09:30.517Z,10.45
2023-04-20T12:11:59.256Z,10.41
2023-04-20T12:14:27.588Z,10.38
2023-04-20T12:16:58.030Z,10.38
2023-04-20T12:19:26.934Z,10.43
2023-04-20T12:21:55.538Z,10.46
2023-04-20T12:24:24.008Z,10.46
2023-04-20T12:26:52.224Z,10.40
2023-04-20T12:29:20.803Z,10.35
2023-04-20T12:31:49.123Z,10.43
2023-04-20T12:34:17.539Z,10.48
2023-04-20T12:36:45.888Z,10.57
2023-04-20T12:39:14.133Z,10.57
2023-04-20T12:41:42.640Z,10.48
2023-04-20T12:44:11.587Z,10.53
2023-04-20T12:46:40.038Z,10.61
2023-04-20T12:49:08.421Z,10.64
2023-04-20T12:51:36.684Z,10.63
2023-04-20T12:54:04.963Z,10.50
2023-04-20T12:56:33.168Z,10.50
2023-04-20T12:59:01.564Z,10.50
2023-04-20T13:01:29.979Z,10.49
2023-04-20T13:03:58.532Z,10.51
2023-04-20T13:06:27.004Z,10.52
2023-04-20T13:08:55.344Z,10.52
2023-04-20T13:11:24.162Z,10.44
2023-04-20T13:13:53.745Z,10.35
2023-04-20T13:16:22.078Z,10.36
2023-04-20T13:18:50.590Z,10.34
2023-04-20T13:21:18.797Z,10.30
2023-04-20T13:23:47.122Z,10.27
2023-04-20T13:26:15.351Z,10.18
2023-04-20T13:28:43.651Z,10.10
2023-04-20T13:31:11.933Z,10.01
2023-04-20T13:33:40.272Z,10.02
2023-04-20T13:36:08.828Z,10.10
2023-04-20T13:38:37.142Z,10.17
2023-04-20T13:41:05.503Z,10.24
2023-04-20T13:43:33.774Z,10.26
2023-04-20T13:46:02.160Z,10.30
2023-04-20T13:48:30.374Z,10.32
2023-04-20T13:50:58.528Z,10.36
2023-04-20T13:53:27.558Z,10.32
2023-04-20T13:55:55.913Z,10.29
2023-04-20T13:58:24.133Z,10.21
2023-04-20T14:00:52.297Z,10.13
2023-04-20T14:03:21.380Z,10.10
2023-04-20T14:05:51.524Z,10.03
2023-04-20T14:08:20.800Z,10.00
2023-04-20T14:10:49.153Z,9.97
2023-04-20T14:13:17.375Z,9.95
2023-04-20T14:15:45.715Z,9.96
2023-04-20T14:18:14.065Z,9.89
2023-04-20T14:20:42.457Z,9.79
2023-04-20T14:23:10.720Z,9.71
2023-04-20T14:25:39.025Z,9.56
2023-04-20T14:28:07.879Z,9.56
2023-04-20T14:30:36.084Z,9.49
2023-04-20T14:33:05.416Z,9.49
2023-04-20T14:35:33.814Z,9.48
2023-04-20T14:38:02.114Z,9.50
2023-04-20T14:40:30.768Z,9.53
2023-04-20T14:42:59.112Z,9.51
2023-04-20T14:45:27.336Z,9.50
2023-04-20T14:47:57.096Z,9.50
2023-04-20T14:50:28.835Z,9.47
2023-04-20T14:52:57.156Z,9.39
2023-04-20T14:55:26.266Z,9.35
2023-04-20T14:57:55.929Z,9.24
2023-04-20T15:00:24.925Z,9.17
2023-04-20T15:02:53.624Z,9.10
2023-04-20T15:05:23.056Z,9.09
2023-04-20T15:07:51.504Z,9.09
2023-04-20T15:10:20.156Z,9.10
2023-04-20T15:12:48.602Z,9.09
2023-04-20T15:15:17.203Z,9.05
2023-04-20T15:17:46.601Z,9.01
2023-04-20T15:20:15.722Z,8.94
2023-04-20T15:22:44.034Z,8.87
2023-04-20T15:25:12.333Z,8.78
2023-04-20T15:27:40.711Z,8.74
2023-04-20T15:30:09.392Z,8.67
2023-04-20T15:32:37.736Z,8.63
2023-04-20T15:35:06.328Z,8.60
2023-04-20T15:37:34.639Z,8.57
2023-04-20T15:40:02.845Z,8.55
2023-04-20T15:42:31.118Z,8.49
2023-04-20T15:44:59.349Z,8.47
2023-04-20T15:47:27.670Z,8.45
2023-04-20T15:50:01.553Z,8.46
2023-04-20T15:52:31.044Z,8.43
2023-04-20T15:54:59.312Z,8.38
2023-04-20T15:57:27.702Z,8.34
2023-04-20T15:59:55.954Z,8.26
2023-04-20T16:02:24.487Z,8.20
2023-04-20T16:04:53.292Z,8.15
2023-04-20T16:07:21.561Z,8.10
2023-04-20T16:09:49.717Z,8.05
2023-04-20T16:12:17.969Z,7.99
2023-04-20T16:14:46.192Z,7.92
2023-04-20T16:17:14.424Z,7.89
2023-04-20T16:19:42.729Z,7.85
2023-04-20T16:22:11.374Z,7.88
2023-04-20T16:24:39.867Z,7.87
2023-04-20T16:27:08.145Z,7.84
2023-04-20T16:29:36.519Z,7.82
2023-04-20T16:32:04.726Z,7.81
2023-04-20T16:34:33.056Z,7.79
2023-04-20T16:37:01.636Z,7.71
2023-04-20T16:39:29.879Z,7.69
2023-04-20T16:41:58.696Z,7.65
2023-04-20T16:44:27.091Z,7.58
2023-04-20T16:46:55.996Z,7.53
2023-04-20T16:49:24.285Z,7.48
2023-04-20T16:51:52.659Z,7.41
2023-04-20T16:54:21.649Z,7.35
2023-04-20T16:56:49.909Z,7.31
2023-04-20T16:59:18.194Z,7.26
2023-04-20T17:01:48.610Z,7.21
2023-04-20T17:04:18.542Z,7.17
2023-04-20T17:06:47.318Z,7.04
2023-04-20T17:09:15.836Z,6.98
2023-04-20T17:11:44.094Z,6.95
2023-04-20T17:14:12.297Z,6.92
2023-04-20T17:16:40.668Z,6.89
2023-04-20T17:19:08.933Z,6.89
2023-04-20T17:21:37.226Z,6.93
2023-04-20T17:24:06.055Z,6.93
2023-04-20T17:26:34.376Z,6.97
2023-04-20T17:29:02.621Z,6.98
2023-04-20T17:31:33.415Z,7.00
2023-04-20T17:34:01.792Z,7.02
2023-04-20T17:36:30.105Z,6.99
2023-04-20T17:38:58.357Z,6.97
2023-04-20T17:41:26.716Z,6.93
2023-04-20T17:43:55.044Z,6.93
2023-04-20T17:46:23.680Z,6.88
2023-04-20T17:48:51.996Z,6.86
2023-04-20T17:51:20.182Z,6.83
2023-04-20T17:53:48.387Z,6.77
2023-04-20T17:56:16.728Z,6.75
2023-04-20T17:58:44.957Z,6.71
2023-04-20T18:01:13.284Z,6.68
2023-04-20T18:03:41.738Z,6.65
2023-04-20T18:06:11.033Z,6.63
2023-04-20T18:08:39.268Z,6.58
2023-04-20T18:11:07.642Z,6.54
2023-04-20T18:13:36.056Z,6.51
2023-04-20T18:16:07.391Z,6.45
2023-04-20T18:18:35.803Z,6.46
2023-04-20T18:21:04.573Z,6.49
2023-04-20T18:23:33.021Z,6.54
2023-04-20T18:26:01.325Z,6.60
2023-04-20T18:28:29.503Z,6.66
2023-04-20T18:30:59.030Z,6.68
2023-04-20T18:33:27.618Z,6.70
2023-04-20T18:35:55.929Z,6.71
2023-04-20T18:38:24.125Z,6.71
2023-04-20T18:40:52.328Z,6.69
2023-04-20T18:43:20.560Z,6.67
2023-04-20T18:45:51.993Z,6.64
2023-04-20T18:48:20.430Z,6.59
2023-04-20T18:50:48.832Z,6.54
2023-04-20T18:53:17.840Z,6.49
2023-04-20T18:55:46.635Z,6.45
2023-04-20T18:58:14.840Z,6.41
2023-04-20T19:00:45.510Z,6.38
2023-04-20T19:03:14.104Z,6.35
2023-04-20T19:05:42.569Z,6.30
2023-04-20T19:08:10.837Z,6.27
2023-04-20T19:10:39.241Z,6.23
2023-04-20T19:13:07.571Z,6.19
2023-04-20T19:15:35.930Z,6.16
2023-04-20T19:18:04.452Z,6.16
2023-04-20T19:20:32.948Z,6.19
2023-04-20T19:23:01.148Z,6.23
2023-04-20T19:25:29.884Z,6.28
2023-04-20T19:27:58.267Z,6.30
2023-04-20T19:30:26.604Z,6.35
2023-04-20T19:32:54.938Z,6.42
2023-04-20T19:35:23.257Z,6.45
2023-04-20T19:37:51.440Z,6.45
2023-04-20T19:40:22.133Z,6.44
2023-04-20T19:42:50.954Z,6.42
2023-04-20T19:45:19.330Z,6.39
2023-04-20T19:47:47.615Z,6.36
2023-04-20T19:50:16.620Z,6.33
2023-04-20T19:52:44.915Z,6.30
2023-04-20T19:55:13.255Z,6.28
2023-04-20T19:57:41.529Z,6.23
2023-04-20T20:00:10.299Z,6.20
2023-04-20T20:02:41.789Z,6.17
2023-04-20T20:05:10.292Z,6.14
2023-04-20T20:07:38.556Z,6.12
2023-04-20T20:10:07.011Z,6.06
2023-04-20T20:12:35.540Z,6.00
2023-04-20T20:15:05.007Z,6.04
2023-04-20T20:17:33.520Z,6.06
2023-04-20T20:20:02.291Z,6.10
2023-04-20T20:22:30.659Z,6.13
2023-04-20T20:24:59.159Z,6.14
2023-04-20T20:27:28.128Z,6.16
2023-04-20T20:29:56.365Z,6.15
2023-04-20T20:32:25.113Z,6.14
2023-04-20T20:34:53.462Z,6.12
2023-04-20T20:37:21.696Z,6.11
2023-04-20T20:39:50.094Z,6.08
2023-04-20T20:42:18.320Z,6.04
2023-04-20T20:44:46.679Z,5.97
2023-04-20T20:47:14.896Z,5.98
2023-04-20T20:49:43.201Z,5.97
2023-04-20T20:52:11.313Z,5.95
2023-04-20T20:54:39.613Z,5.91
2023-04-20T20:57:08.068Z,5.87
2023-04-20T20:59:36.391Z,5.85
2023-04-20T21:02:04.710Z,5.86
2023-04-20T21:04:33.466Z,5.88
2023-04-20T21:07:01.770Z,5.93
2023-04-20T21:09:30.262Z,6.00
2023-04-20T21:12:00.173Z,6.07
2023-04-20T21:14:28.488Z,6.11
2023-04-20T21:16:56.998Z,6.12
2023-04-20T21:19:25.378Z,6.11
2023-04-20T21:21:53.705Z,6.09
2023-04-20T21:24:22.986Z,6.08
2023-04-20T21:26:52.705Z,6.04
2023-04-20T21:29:21.171Z,6.03
2023-04-20T21:31:52.066Z,5.98
2023-04-20T21:34:20.465Z,5.93
2023-04-20T21:36:48.878Z,5.93
2023-04-20T21:39:17.437Z,5.86
2023-04-20T21:41:46.076Z,5.81
2023-04-20T21:44:14.465Z,5.74
2023-04-20T21:46:42.852Z,5.77
2023-04-20T21:49:11.125Z,5.78
2023-04-20T21:51:39.455Z,5.81
2023-04-20T21:54:07.802Z,5.85
2023-04-20T21:56:36.029Z,5.89
2023-04-20T21:59:04.396Z,5.92
2023-04-20T22:01:32.801Z,5.92
2023-04-20T22:04:01.988Z,5.91
2023-04-20T22:06:32.482Z,5.88
2023-04-20T22:09:00.797Z,5.86
2023-04-20T22:11:29.753Z,5.83
2023-04-20T22:13:58.110Z,5.81
2023-04-20T22:16:28.721Z,5.74
2023-04-20T22:18:57.213Z,5.72
2023-04-20T22:21:25.478Z,5.66
2023-04-20T22:23:53.785Z,5.62
2023-04-20T22:26:22.048Z,5.59
2023-04-20T22:28:50.634Z,5.54
2023-04-20T22:31:18.953Z,5.51
2023-04-20T22:33:47.362Z,5.55
2023-04-20T22:36:15.687Z,5.61
2023-04-20T22:38:44.075Z,5.62
2023-04-20T22:41:12.342Z,5.67
2023-04-20T22:43:40.614Z,5.70
2023-04-20T22:46:08.899Z,5.70
2023-04-20T22:48:38.362Z,5.69
2023-04-20T22:51:06.642Z,5.65
2023-04-20T22:53:35.019Z,5.61
2023-04-20T22:56:06.711Z,5.55
2023-04-20T22:58:35.175Z,5.51
2023-04-20T23:01:03.559Z,5.45
2023-04-20T23:03:32.830Z,5.42
2023-04-20T23:06:01.265Z,5.37
2023-04-20T23:08:29.699Z,5.30
2023-04-20T23:10:58.067Z,5.25
2023-04-20T23:13:26.595Z,5.20
2023-04-20T23:15:54.905Z,5.14
2023-04-20T23:18:23.273Z,5.12
2023-04-20T23:20:51.550Z,5.08
2023-04-20T23:23:19.896Z,5.05
2023-04-20T23:25:48.170Z,5.03
2023-04-20T23:28:16.420Z,4.99
2023-04-20T23:30:44.724Z,5.01
2023-04-20T23:33:13.055Z,5.04
2023-04-20T23:35:41.523Z,5.08
2023-04-20T23:38:09.694Z,5.12
2023-04-20T23:40:38.682Z,5.12
2023-04-20T23:43:06.968Z,5.11
2023-04-20T23:45:35.340Z,5.12
2023-04-20T23:48:03.706Z,5.13
2023-04-20T23:50:32.216Z,5.11
2023-04-20T23:53:01.288Z,5.09
2023-04-20T23:55:29.588Z,5.05
2023-04-20T23:57:58.589Z,5.03
